EDT,Max TemperatureF,Mean TemperatureF,Min TemperatureF,Max Dew PointF,MeanDew PointF,Min DewpointF,Max Humidity, Mean Humidity, Min Humidity, Max Sea Level PressureIn, Mean Sea Level PressureIn, Min Sea Level PressureIn, Max VisibilityMiles, Mean VisibilityMiles, Min VisibilityMiles, Max Wind SpeedMPH, Mean Wind SpeedMPH, Max Gust SpeedMPH,PrecipitationIn, CloudCover, Events, WindDirDegrees
2011-10-1,64,60,55,55,53,50,94,78,63,29.78,29.69,29.60,10,10,9,15,8,22,0.08,5,,306
2011-10-2,55,52,50,48,44,39,82,74,62,29.96,29.82,29.74,10,10,6,15,10,21,0.01,7,,232
2011-10-3,57,52,48,46,42,39,87,70,51,30.06,30.02,29.95,10,10,9,10,5,,0.11,4,,229
2011-10-4,64,58,51,52,47,45,82,70,56,30.09,30.07,30.05,10,10,10,15,6,23,0.00,5,,306
2011-10-5,69,64,59,54,52,50,77,66,49,30.16,30.12,30.09,10,10,10,16,9,23,0.00,0,,305
2011-10-6,57,50,44,43,40,39,81,68,58,30.37,30.32,30.26,10,10,10,10,8,,0.00,0,,9
2011-10-7,,,,,,,,,,,,,,,,,,,,,,
2011-10-8,,,,,,,,,,,,,,,,,,,,,,
2011-10-9,75,63,51,59,53,48,94,72,47,30.46,30.39,30.32,10,10,10,8,2,,0.00,0,,290
2011-10-10,78,66,53,63,55,52,94,73,44,30.32,30.25,30.18,10,10,6,7,2,,0.00,0,,28
2011-10-11,71,64,57,63,58,55,94,81,69,30.16,30.13,30.09,10,10,4,13,4,21,0.00,0,,57
2011-10-12,66,64,62,63,61,59,94,89,78,30.10,30.00,29.86,10,9,3,17,10,26,0.29,7,,58
2011-10-13,69,66,64,66,64,63,94,93,88,29.84,29.74,29.66,10,6,1,13,6,16,0.01,7,,83
2011-10-14,73,68,62,66,64,57,94,85,68,29.64,29.53,29.43,10,9,7,20,12,25,0.05,4,,190
2011-10-15,69,63,57,46,44,41,67,50,35,29.78,29.74,29.68,10,10,10,22,14,31,0.04,0,,237
2011-10-16,69,64,60,45,40,36,49,40,33,30.02,29.94,29.82,10,10,10,18,13,29,0.00,0,,250
2011-10-17,68,64,60,54,47,39,72,54,40,29.86,29.80,29.70,10,10,10,20,12,25,0.00,1,,256
2011-10-18,69,60,51,59,49,39,94,68,33,29.89,29.86,29.83,10,10,10,9,3,,655.33,1,,78
2011-10-19,69,66,64,68,64,61,94,89,88,29.82,29.58,29.39,10,8,2,17,9,28,0.53,7,,94
2011-10-20,69,63,57,66,51,39,88,66,48,29.73,29.52,29.35,10,9,5,26,17,38,0.01,4,,208
2011-10-21,60,56,53,43,40,37,67,56,42,30.02,29.94,29.81,10,10,10,18,13,26,0.00,0,,261
2011-10-22,59,54,50,43,41,37,71,61,48,30.15,30.11,30.09,10,10,10,10,7,,0.00,1,,308
2011-10-23,60,50,39,45,39,36,87,65,42,30.19,30.14,30.12,10,10,9,8,2,,0.00,0,,335
2011-10-24,64,53,42,52,44,39,88,72,52,30.16,30.10,30.01,10,10,2,10,2,,0.00,0,,144
2011-10-25,62,58,53,52,44,37,88,62,42,30.16,30.09,30.03,10,10,9,16,7,23,0.00,0,,290
2011-10-26,69,61,53,54,49,45,77,63,49,30.10,29.94,29.82,10,10,10,18,9,26,0.00,0,,233
2011-10-27,68,64,60,57,55,54,82,73,64,29.78,29.68,29.59,10,10,8,15,7,24,0.01,5,,230
2011-10-28,48,44,39,37,31,27,76,59,46,30.24,30.17,29.97,10,10,10,16,11,25,0.00,3,,19
2011-10-29,48,42,37,46,40,32,93,84,71,30.19,29.93,29.66,10,8,2,24,14,37,1.28,8,,20
2011-10-30,50,44,37,34,29,25,87,62,40,30.29,30.16,29.97,10,10,10,15,12,25,0.01,2,,320
2011-10-31,55,42,28,41,34,25,93,73,51,30.42,30.37,30.27,10,10,10,10,2,,0.00,1,,109